createdAt,value
2022-10-24T00:01:20.079Z,13.80
2022-10-24T00:03:47.373Z,13.80
2022-10-24T00:06:14.037Z,13.80
2022-10-24T00:08:42.538Z,13.70
2022-10-24T00:11:15.560Z,13.70
2022-10-24T00:13:42.878Z,13.80
2022-10-24T00:16:10.560Z,13.70
2022-10-24T00:18:37.415Z,13.70
2022-10-24T00:21:04.589Z,13.70
2022-10-24T00:23:31.459Z,13.60
2022-10-24T00:26:01.576Z,13.50
2022-10-24T00:28:29.910Z,13.50
2022-10-24T00:30:56.961Z,13.50
2022-10-24T00:33:23.735Z,13.50
2022-10-24T00:35:50.457Z,13.50
2022-10-24T00:38:17.000Z,13.50
2022-10-24T00:40:43.927Z,13.50
2022-10-24T00:43:23.196Z,13.40
2022-10-24T00:45:55.821Z,13.30
2022-10-24T00:48:36.328Z,13.30
2022-10-24T00:51:21.431Z,13.30
2022-10-24T00:53:51.630Z,13.30
2022-10-24T00:56:21.419Z,13.30
2022-10-24T00:58:49.100Z,13.20
2022-10-24T01:01:15.854Z,13.20
2022-10-24T01:03:42.511Z,13.20
2022-10-24T01:06:32.956Z,13.10
2022-10-24T01:09:37.548Z,13.20
2022-10-24T01:12:19.745Z,13.10
2022-10-24T01:15:01.396Z,13.10
2022-10-24T01:17:30.715Z,13.10
2022-10-24T01:20:34.589Z,13.00
2022-10-24T01:23:24.729Z,13.00
2022-10-24T01:26:09.439Z,12.90
2022-10-24T01:28:48.097Z,13.00
2022-10-24T01:31:41.668Z,12.90
2022-10-24T01:34:17.242Z,12.90
2022-10-24T01:36:51.340Z,12.80
2022-10-24T01:39:21.961Z,12.80
2022-10-24T01:41:50.176Z,12.80
2022-10-24T01:44:25.109Z,12.70
2022-10-24T01:47:03.781Z,12.70
2022-10-24T01:49:34.036Z,12.60
2022-10-24T01:52:04.415Z,12.60
2022-10-24T01:54:32.058Z,12.70
2022-10-24T01:56:58.648Z,12.60
2022-10-24T01:59:28.310Z,12.70
2022-10-24T02:01:57.415Z,12.70
2022-10-24T02:04:27.599Z,12.60
2022-10-24T02:06:57.152Z,12.60
2022-10-24T02:09:24.497Z,12.60
2022-10-24T02:11:52.892Z,12.50
2022-10-24T02:14:33.207Z,12.50
2022-10-24T02:17:02.084Z,12.50
2022-10-24T02:19:30.144Z,12.50
2022-10-24T02:22:17.144Z,12.50
2022-10-24T02:24:53.256Z,12.50
2022-10-24T02:27:25.987Z,12.60
2022-10-24T02:30:02.703Z,12.50
2022-10-24T02:32:33.554Z,12.50
2022-10-24T02:35:01.735Z,12.50
2022-10-24T02:37:30.132Z,12.50
2022-10-24T02:39:59.350Z,12.20
2022-10-24T02:45:00.999Z,12.20
2022-10-24T02:47:29.415Z,12.30
2022-10-24T02:49:56.077Z,12.40
2022-10-24T02:52:23.952Z,12.40
2022-10-24T02:54:51.376Z,12.30
2022-10-24T02:57:18.171Z,12.20
2022-10-24T02:59:44.714Z,12.30
2022-10-24T03:02:11.499Z,12.30
2022-10-24T03:04:38.158Z,12.30
2022-10-24T03:07:04.838Z,12.30
2022-10-24T03:09:31.360Z,12.30
2022-10-24T03:11:57.895Z,12.30
2022-10-24T03:14:24.471Z,12.30
2022-10-24T03:16:51.076Z,12.30
2022-10-24T03:19:17.627Z,12.30
2022-10-24T03:21:44.269Z,12.30
2022-10-24T03:24:10.878Z,12.20
2022-10-24T03:26:37.508Z,12.20
2022-10-24T03:29:04.646Z,12.20
2022-10-24T03:31:32.195Z,12.10
2022-10-24T03:33:59.272Z,12.10
2022-10-24T03:36:26.456Z,12.10
2022-10-24T03:38:53.008Z,12.10
2022-10-24T03:41:19.672Z,12.10
2022-10-24T03:43:46.334Z,12.20
2022-10-24T03:46:13.064Z,12.20
2022-10-24T03:48:39.859Z,12.20
2022-10-24T03:51:06.551Z,12.10
2022-10-24T03:53:33.167Z,12.10
2022-10-24T03:56:00.339Z,12.10
2022-10-24T03:58:27.772Z,12.20
2022-10-24T04:00:57.070Z,12.20
2022-10-24T04:03:23.877Z,12.20
2022-10-24T04:05:50.954Z,12.30
2022-10-24T04:08:17.489Z,12.30
2022-10-24T04:10:44.057Z,12.40
2022-10-24T04:13:11.411Z,12.40
2022-10-24T04:15:38.480Z,12.40
2022-10-24T04:18:05.290Z,12.50
2022-10-24T04:20:31.837Z,12.50
2022-10-24T04:23:00.098Z,12.50
2022-10-24T04:25:29.148Z,12.50
2022-10-24T04:27:55.672Z,12.60
2022-10-24T04:30:22.343Z,12.60
2022-10-24T04:32:48.908Z,12.60
2022-10-24T04:35:15.556Z,12.50
2022-10-24T04:37:42.315Z,12.60
2022-10-24T04:40:09.511Z,12.60
2022-10-24T04:42:36.110Z,12.60
2022-10-24T04:45:02.941Z,12.70
2022-10-24T04:47:29.498Z,12.70
2022-10-24T04:49:56.044Z,12.70
2022-10-24T04:52:22.606Z,12.70
2022-10-24T04:54:49.179Z,12.70
2022-10-24T04:57:15.855Z,12.80
2022-10-24T04:59:42.627Z,12.80
2022-10-24T05:02:09.489Z,12.80
2022-10-24T05:04:36.363Z,12.80
2022-10-24T05:07:03.213Z,12.80
2022-10-24T05:09:29.932Z,12.80
2022-10-24T05:11:57.299Z,12.80
2022-10-24T05:14:24.489Z,12.80
2022-10-24T05:16:51.391Z,12.90
2022-10-24T05:19:19.548Z,12.90
2022-10-24T05:21:46.660Z,12.90
2022-10-24T05:24:13.277Z,12.90
2022-10-24T05:26:39.819Z,12.90
2022-10-24T05:31:34.828Z,12.90
2022-10-24T05:34:01.679Z,12.90
2022-10-24T05:36:28.285Z,12.90
2022-10-24T05:38:56.357Z,12.90
2022-10-24T05:41:22.899Z,12.90
2022-10-24T05:43:49.495Z,12.90
2022-10-24T05:46:16.141Z,12.90
2022-10-24T05:48:42.763Z,12.90
2022-10-24T05:51:09.365Z,13.00
2022-10-24T05:53:35.974Z,12.90
2022-10-24T05:56:02.681Z,12.90
2022-10-24T05:58:29.341Z,12.90
2022-10-24T06:00:55.937Z,12.90
2022-10-24T06:03:23.063Z,12.90
2022-10-24T06:05:50.289Z,12.90
2022-10-24T06:08:17.241Z,12.90
2022-10-24T06:10:51.322Z,12.80
2022-10-24T06:13:18.338Z,12.90
2022-10-24T06:15:45.364Z,12.90
2022-10-24T06:18:12.213Z,13.00
2022-10-24T06:20:38.919Z,13.00
2022-10-24T06:23:05.606Z,13.00
2022-10-24T06:25:32.446Z,13.00
2022-10-24T06:27:59.488Z,13.00
2022-10-24T06:30:26.216Z,13.00
2022-10-24T06:32:52.776Z,13.10
2022-10-24T06:35:19.450Z,13.10
2022-10-24T06:37:48.144Z,13.10
2022-10-24T06:40:16.122Z,13.20
2022-10-24T06:42:42.759Z,13.20
2022-10-24T06:45:10.035Z,13.20
2022-10-24T06:47:36.679Z,13.20
2022-10-24T06:50:04.343Z,13.20
2022-10-24T06:52:30.971Z,13.20
2022-10-24T06:54:57.683Z,13.20
2022-10-24T06:57:24.445Z,13.30
2022-10-24T06:59:51.291Z,13.30
2022-10-24T07:02:18.090Z,13.30
2022-10-24T07:04:44.879Z,13.30
2022-10-24T07:07:21.644Z,13.30
2022-10-24T07:09:54.290Z,13.40
2022-10-24T07:12:22.294Z,13.40
2022-10-24T07:14:49.014Z,13.50
2022-10-24T07:17:16.828Z,13.60
2022-10-24T07:19:43.724Z,13.60
2022-10-24T07:22:10.605Z,13.70
2022-10-24T07:24:37.529Z,13.70
2022-10-24T07:27:04.209Z,13.60
2022-10-24T07:29:30.879Z,13.70
2022-10-24T07:31:59.382Z,13.70
2022-10-24T07:34:25.952Z,13.70
2022-10-24T07:36:52.743Z,13.70
2022-10-24T07:39:19.480Z,13.80
2022-10-24T07:41:46.013Z,13.80
2022-10-24T07:44:12.803Z,13.90
2022-10-24T07:46:42.390Z,13.90
2022-10-24T07:49:09.737Z,13.90
2022-10-24T07:51:36.565Z,14.00
2022-10-24T07:54:03.217Z,13.90
2022-10-24T07:56:29.776Z,14.00
2022-10-24T07:58:57.797Z,14.10
2022-10-24T08:01:25.831Z,14.10
2022-10-24T08:03:52.466Z,14.10
2022-10-24T08:06:25.573Z,14.30
2022-10-24T08:08:52.158Z,14.30
2022-10-24T08:11:21.750Z,14.40
2022-10-24T08:13:49.433Z,14.50
2022-10-24T08:16:17.496Z,14.60
2022-10-24T08:18:44.749Z,14.60
2022-10-24T08:21:14.027Z,14.70
2022-10-24T08:23:44.191Z,14.80
2022-10-24T08:26:14.686Z,14.90
2022-10-24T08:28:42.054Z,14.90
2022-10-24T08:31:11.955Z,15.00
2022-10-24T08:33:39.096Z,15.00
2022-10-24T08:36:13.339Z,15.20
2022-10-24T08:38:39.937Z,15.20
2022-10-24T08:41:08.929Z,15.30
2022-10-24T08:43:36.611Z,15.50
2022-10-24T08:46:15.334Z,15.60
2022-10-24T08:48:48.480Z,15.70
2022-10-24T08:52:06.481Z,15.90
2022-10-24T08:54:36.845Z,16.00
2022-10-24T08:57:06.199Z,16.10
2022-10-24T08:59:35.983Z,16.20
2022-10-24T09:02:15.377Z,16.30
2022-10-24T09:04:50.977Z,16.50
2022-10-24T09:07:20.455Z,16.70
2022-10-24T09:09:50.976Z,16.80
2022-10-24T09:12:20.538Z,16.80
2022-10-24T09:14:55.717Z,16.90
2022-10-24T09:17:24.247Z,17.00
2022-10-24T09:19:58.124Z,17.10
2022-10-24T09:22:28.035Z,17.20
2022-10-24T09:25:11.703Z,17.20
2022-10-24T09:27:40.180Z,17.30
2022-10-24T09:30:15.264Z,17.30
2022-10-24T09:32:42.510Z,17.30
2022-10-24T09:35:16.959Z,17.40
2022-10-24T09:37:48.971Z,17.50
2022-10-24T09:40:21.404Z,17.70
2022-10-24T09:43:11.087Z,17.70
2022-10-24T09:45:40.564Z,17.90
2022-10-24T09:48:18.631Z,18.00
2022-10-24T09:50:48.323Z,18.10
2022-10-24T09:53:24.768Z,18.20
2022-10-24T09:55:54.900Z,18.40
2022-10-24T09:58:29.694Z,18.40
2022-10-24T10:00:58.770Z,18.40
2022-10-24T10:03:26.395Z,18.40
2022-10-24T10:05:55.632Z,18.30
2022-10-24T10:08:28.412Z,18.50
2022-10-24T10:10:57.116Z,18.50
2022-10-24T10:13:25.559Z,18.50
2022-10-24T10:16:02.397Z,18.50
2022-10-24T10:19:02.754Z,18.40
2022-10-24T10:21:56.899Z,18.40
2022-10-24T10:24:42.337Z,18.50
2022-10-24T10:27:27.029Z,18.60
2022-10-24T10:30:17.731Z,18.80
2022-10-24T10:33:02.779Z,18.90
2022-10-24T10:35:37.955Z,18.90
2022-10-24T10:38:10.502Z,19.00
2022-10-24T10:40:44.950Z,19.10
2022-10-24T10:43:17.682Z,19.10
2022-10-24T10:45:56.877Z,19.10
2022-10-24T10:48:57.548Z,19.30
2022-10-24T10:51:38.908Z,19.50
2022-10-24T10:54:43.383Z,19.60
2022-10-24T10:57:12.837Z,19.60
2022-10-24T11:00:02.516Z,19.90
2022-10-24T11:02:35.876Z,20.10
2022-10-24T11:05:16.979Z,19.90
2022-10-24T11:08:07.728Z,19.90
2022-10-24T11:10:44.036Z,19.70
2022-10-24T11:13:27.496Z,19.60
2022-10-24T11:15:58.871Z,19.60
2022-10-24T11:18:38.542Z,19.50
2022-10-24T11:21:17.790Z,19.40
2022-10-24T11:26:44.953Z,19.30
2022-10-24T11:29:29.008Z,19.30
2022-10-24T11:32:34.401Z,19.50
2022-10-24T11:35:24.201Z,19.60
2022-10-24T11:37:56.819Z,19.60
2022-10-24T11:43:11.655Z,19.70
2022-10-24T11:45:48.514Z,19.70
2022-10-24T11:48:36.033Z,19.70
2022-10-24T11:51:21.543Z,19.70
2022-10-24T11:53:51.475Z,19.70
2022-10-24T11:56:57.924Z,19.80
2022-10-24T11:59:25.541Z,19.80
2022-10-24T12:01:55.227Z,19.80
2022-10-24T12:04:54.639Z,19.80
2022-10-24T12:07:43.108Z,19.80
2022-10-24T12:10:17.016Z,19.80
2022-10-24T12:13:12.875Z,19.80
2022-10-24T12:15:59.242Z,19.70
2022-10-24T12:18:29.097Z,19.70
2022-10-24T12:21:00.721Z,19.60
2022-10-24T12:23:28.775Z,19.60
2022-10-24T12:26:12.961Z,19.60
2022-10-24T12:28:40.549Z,19.50
2022-10-24T12:31:20.839Z,19.60
2022-10-24T12:34:19.695Z,20.10
2022-10-24T12:37:11.867Z,20.40
2022-10-24T12:39:44.488Z,21.30
2022-10-24T12:42:36.695Z,21.20
2022-10-24T12:45:26.664Z,21.30
2022-10-24T12:47:53.407Z,21.10
2022-10-24T12:50:23.321Z,21.10
2022-10-24T12:52:51.361Z,21.10
2022-10-24T12:55:39.443Z,20.90
2022-10-24T12:58:27.823Z,20.70
2022-10-24T13:01:24.938Z,20.50
2022-10-24T13:03:54.266Z,20.40
2022-10-24T13:06:26.773Z,20.40
2022-10-24T13:09:01.082Z,20.80
2022-10-24T13:11:59.734Z,20.70
2022-10-24T13:14:47.954Z,20.40
2022-10-24T13:17:26.650Z,20.30
2022-10-24T13:20:16.419Z,20.20
2022-10-24T13:22:44.464Z,20.10
2022-10-24T13:25:19.569Z,20.20
2022-10-24T13:27:46.242Z,20.10
2022-10-24T13:30:30.845Z,20.10
2022-10-24T13:33:36.372Z,20.00
2022-10-24T13:36:09.143Z,20.00
2022-10-24T13:38:41.981Z,20.20
2022-10-24T13:41:17.484Z,20.20
2022-10-24T13:43:48.026Z,20.20
2022-10-24T13:46:27.909Z,20.10
2022-10-24T13:48:55.522Z,20.00
2022-10-24T13:51:31.996Z,20.00
2022-10-24T13:54:08.853Z,19.90
2022-10-24T13:56:39.428Z,19.90
2022-10-24T13:59:07.623Z,19.90
2022-10-24T14:01:36.149Z,19.80
2022-10-24T14:04:02.911Z,19.70
2022-10-24T14:06:32.177Z,19.60
2022-10-24T14:09:07.487Z,19.50
2022-10-24T14:11:39.225Z,19.40
2022-10-24T14:14:10.093Z,19.30
2022-10-24T14:16:39.762Z,19.30
2022-10-24T14:19:29.569Z,19.30
2022-10-24T14:21:57.650Z,19.40
2022-10-24T14:24:24.220Z,19.30
2022-10-24T14:26:53.987Z,19.30
2022-10-24T14:29:25.242Z,19.30
2022-10-24T14:32:01.421Z,19.20
2022-10-24T14:34:32.576Z,19.30
2022-10-24T14:37:08.754Z,19.20
2022-10-24T14:39:36.846Z,19.30
2022-10-24T14:42:03.951Z,19.30
2022-10-24T14:44:32.986Z,19.30
2022-10-24T14:47:21.576Z,19.30
2022-10-24T14:49:48.534Z,19.40
2022-10-24T14:52:28.662Z,19.40
2022-10-24T14:55:05.391Z,19.50
2022-10-24T14:57:34.296Z,19.50
2022-10-24T15:00:10.022Z,19.50
2022-10-24T15:02:42.884Z,19.60
2022-10-24T15:05:19.585Z,19.70
2022-10-24T15:08:16.445Z,19.60
2022-10-24T15:10:42.761Z,19.60
2022-10-24T15:13:21.045Z,19.60
2022-10-24T15:15:57.753Z,19.40
2022-10-24T15:18:27.479Z,19.40
2022-10-24T15:21:07.109Z,19.30
2022-10-24T15:23:48.670Z,19.20
2022-10-24T15:26:28.821Z,19.10
2022-10-24T15:29:16.817Z,19.10
2022-10-24T15:31:46.373Z,19.00
2022-10-24T15:34:16.946Z,18.80
2022-10-24T15:36:45.790Z,18.90
2022-10-24T15:39:16.258Z,18.80
2022-10-24T15:41:43.182Z,18.70
2022-10-24T15:44:17.612Z,18.70
2022-10-24T15:46:45.403Z,18.60
2022-10-24T15:49:12.916Z,18.50
2022-10-24T15:51:45.876Z,18.40
2022-10-24T15:54:17.239Z,18.40
2022-10-24T15:56:43.804Z,18.20
2022-10-24T15:59:10.513Z,18.20
2022-10-24T16:01:47.196Z,18.10
2022-10-24T16:04:14.487Z,18.10
2022-10-24T16:06:41.147Z,17.90
2022-10-24T16:09:15.211Z,18.00
2022-10-24T16:11:42.086Z,17.90
2022-10-24T16:14:16.160Z,17.90
2022-10-24T16:16:43.085Z,17.70
2022-10-24T16:19:10.435Z,17.70
2022-10-24T16:21:38.376Z,17.60
2022-10-24T16:24:05.457Z,17.40
2022-10-24T16:26:32.239Z,17.30
2022-10-24T16:28:58.800Z,17.40
2022-10-24T16:31:25.385Z,17.40
2022-10-24T16:33:52.805Z,17.50
2022-10-24T16:36:22.238Z,17.40
2022-10-24T16:38:51.560Z,17.30
2022-10-24T16:41:21.160Z,17.30
2022-10-24T16:43:49.902Z,17.10
2022-10-24T16:46:21.116Z,17.00
2022-10-24T16:48:49.215Z,17.10
2022-10-24T16:51:26.022Z,17.20
2022-10-24T16:53:52.795Z,17.30
2022-10-24T16:56:19.381Z,17.30
2022-10-24T16:58:46.302Z,17.20
2022-10-24T17:01:15.885Z,17.20
2022-10-24T17:03:44.888Z,17.30
2022-10-24T17:06:11.595Z,17.20
2022-10-24T17:08:38.283Z,17.20
2022-10-24T17:11:16.198Z,17.10
2022-10-24T17:13:51.925Z,17.10
2022-10-24T17:16:20.717Z,16.90
2022-10-24T17:19:04.685Z,16.90
2022-10-24T17:21:32.609Z,16.90
2022-10-24T17:23:59.408Z,16.70
2022-10-24T17:26:26.256Z,16.80
2022-10-24T17:28:52.897Z,16.80
2022-10-24T17:31:19.602Z,16.70
2022-10-24T17:33:46.597Z,16.70
2022-10-24T17:36:36.425Z,16.80
2022-10-24T17:39:10.473Z,16.80
2022-10-24T17:41:40.538Z,16.60
2022-10-24T17:44:12.375Z,16.60
2022-10-24T17:46:39.239Z,16.50
2022-10-24T17:49:08.036Z,16.40
2022-10-24T17:51:37.364Z,16.30
2022-10-24T17:54:05.799Z,16.30
2022-10-24T17:56:32.824Z,16.20
2022-10-24T17:58:59.373Z,16.10
2022-10-24T18:01:26.073Z,16.10
2022-10-24T18:03:52.753Z,16.00
2022-10-24T18:06:19.395Z,15.90
2022-10-24T18:08:47.645Z,15.80
2022-10-24T18:11:14.673Z,15.80
2022-10-24T18:13:41.342Z,15.70
2022-10-24T18:16:13.343Z,15.70
2022-10-24T18:18:40.688Z,15.50
2022-10-24T18:23:51.547Z,15.40
2022-10-24T18:26:22.437Z,15.30
2022-10-24T18:28:51.284Z,15.30
2022-10-24T18:31:26.750Z,15.20
2022-10-24T18:33:53.856Z,15.20
2022-10-24T18:36:24.344Z,15.10
2022-10-24T18:38:53.538Z,15.00
2022-10-24T18:41:43.051Z,14.90
2022-10-24T18:44:31.302Z,14.90
2022-10-24T18:47:04.075Z,14.80
2022-10-24T18:49:33.551Z,14.80
2022-10-24T18:52:09.449Z,14.80
2022-10-24T18:55:01.924Z,14.80
2022-10-24T18:57:31.200Z,14.80
2022-10-24T18:59:59.679Z,14.80
2022-10-24T19:02:43.861Z,14.80
2022-10-24T19:05:30.804Z,14.80
2022-10-24T19:07:57.516Z,14.70
2022-10-24T19:10:26.399Z,14.70
2022-10-24T19:12:54.321Z,14.70
2022-10-24T19:15:21.839Z,14.70
2022-10-24T19:17:49.165Z,14.70
2022-10-24T19:20:22.498Z,14.70
2022-10-24T19:22:49.653Z,14.70
2022-10-24T19:25:17.598Z,14.70
2022-10-24T19:27:44.232Z,14.70
2022-10-24T19:30:11.661Z,14.80
2022-10-24T19:32:38.253Z,14.70
2022-10-24T19:35:05.314Z,14.70
2022-10-24T19:37:32.087Z,14.60
2022-10-24T19:39:58.679Z,14.60
2022-10-24T19:42:25.448Z,14.60
2022-10-24T19:44:54.516Z,14.60
2022-10-24T19:47:21.982Z,14.60
2022-10-24T19:49:49.441Z,14.70
2022-10-24T19:52:16.055Z,14.70
2022-10-24T19:54:42.624Z,14.70
2022-10-24T19:57:09.338Z,14.60
2022-10-24T19:59:36.225Z,14.60
2022-10-24T20:02:04.332Z,14.60
2022-10-24T20:04:31.383Z,14.60
2022-10-24T20:06:57.944Z,14.50
2022-10-24T20:09:24.611Z,14.40
2022-10-24T20:11:51.203Z,14.40
2022-10-24T20:14:17.927Z,14.30
2022-10-24T20:16:44.560Z,14.40
2022-10-24T20:19:11.076Z,14.30
2022-10-24T20:21:37.663Z,14.20
2022-10-24T20:24:04.692Z,14.30
2022-10-24T20:26:31.328Z,14.20
2022-10-24T20:28:58.779Z,14.10
2022-10-24T20:31:39.478Z,14.10
2022-10-24T20:34:09.716Z,14.20
2022-10-24T20:36:38.405Z,14.20
2022-10-24T20:39:06.651Z,14.20
2022-10-24T20:41:33.732Z,14.20
2022-10-24T20:44:01.328Z,14.30
2022-10-24T20:46:28.151Z,14.30
2022-10-24T20:48:54.892Z,14.20
2022-10-24T20:51:22.128Z,14.20
2022-10-24T20:53:48.965Z,14.20
2022-10-24T20:56:18.608Z,14.20
2022-10-24T20:58:45.844Z,14.20
2022-10-24T21:01:18.269Z,14.20
2022-10-24T21:03:45.092Z,14.30
2022-10-24T21:06:20.536Z,14.30
2022-10-24T21:08:48.622Z,14.40
2022-10-24T21:11:17.657Z,14.40
2022-10-24T21:13:45.366Z,14.40
2022-10-24T21:16:13.829Z,14.50
2022-10-24T21:18:40.588Z,14.50
2022-10-24T21:21:12.357Z,14.70
2022-10-24T21:23:39.047Z,14.70
2022-10-24T21:26:08.348Z,14.70
2022-10-24T21:28:35.516Z,14.90
2022-10-24T21:31:11.311Z,14.90
2022-10-24T21:33:38.386Z,14.90
2022-10-24T21:36:07.515Z,15.10
2022-10-24T21:38:34.157Z,15.10
2022-10-24T21:41:06.197Z,15.10
2022-10-24T21:43:34.396Z,15.10
2022-10-24T21:46:02.198Z,15.20
2022-10-24T21:48:30.115Z,15.20
2022-10-24T21:51:06.981Z,15.20
2022-10-24T21:53:38.668Z,15.10
2022-10-24T21:56:07.957Z,15.10
2022-10-24T21:58:34.792Z,15.10
2022-10-24T22:01:01.608Z,15.20
2022-10-24T22:03:28.279Z,15.20
2022-10-24T22:05:56.444Z,15.20
2022-10-24T22:08:24.377Z,15.10
2022-10-24T22:10:58.177Z,15.10
2022-10-24T22:13:25.083Z,15.00
2022-10-24T22:15:51.682Z,15.00
2022-10-24T22:18:18.429Z,15.00
2022-10-24T22:20:45.417Z,15.00
2022-10-24T22:23:12.353Z,15.00
2022-10-24T22:25:39.143Z,15.00
2022-10-24T22:28:05.877Z,15.00
2022-10-24T22:30:32.928Z,15.00
2022-10-24T22:33:00.093Z,15.00
2022-10-24T22:35:27.367Z,15.00
2022-10-24T22:37:54.164Z,14.90
2022-10-24T22:40:31.393Z,14.80
2022-10-24T22:42:58.523Z,14.80
2022-10-24T22:45:25.474Z,14.80
2022-10-24T22:47:58.135Z,14.80
2022-10-24T22:50:47.503Z,14.80
2022-10-24T22:53:16.434Z,14.90
2022-10-24T22:56:25.710Z,14.90
2022-10-24T22:58:52.561Z,14.80
2022-10-24T23:01:50.913Z,14.70
2022-10-24T23:04:46.648Z,14.90
2022-10-24T23:07:18.219Z,14.90
2022-10-24T23:09:44.857Z,14.90
2022-10-24T23:12:16.218Z,14.90
2022-10-24T23:14:44.359Z,14.90
2022-10-24T23:17:35.539Z,14.90
2022-10-24T23:20:02.394Z,14.90
2022-10-24T23:22:31.263Z,14.90
2022-10-24T23:25:00.203Z,14.80
2022-10-24T23:27:42.801Z,14.80
2022-10-24T23:30:17.641Z,14.80
2022-10-24T23:32:45.159Z,14.70
2022-10-24T23:35:16.922Z,14.60
2022-10-24T23:37:46.790Z,14.60
2022-10-24T23:40:33.182Z,14.60
2022-10-24T23:43:01.140Z,14.50
2022-10-24T23:45:35.378Z,14.50
2022-10-24T23:48:31.028Z,14.50
2022-10-24T23:51:10.324Z,14.40
2022-10-24T23:53:55.049Z,14.40
2022-10-24T23:56:27.238Z,14.30
2022-10-24T23:58:55.104Z,14.30
